CAR weather

Caribou Municipal Airport
Caribou, Maine, United States

Public forecast

Using degrees Fahrenheit for public forecast. Weather courtesy of forecast.io.

METAR (pilot weather report)

Retrieved 2019/07/23 02:54 UTC (1 hour ago):

KCAR 230254Z AUTO 00000KT 10SM CLR 14/10 A2985 RMK AO2 SLP110 T01440100 50000

TAF (pilot weather forecast)

Forecast is more than 12 hours old.

Retrieved 2019/07/22 00:22 UTC (1 day ago):

TAF KCAR 222320Z 2300/2324 00000KT P6SM BKN200 FM231500 21005KT P6SM SCT100